»·PEaware :: N335AK KCMA-KLVK

N335AK :: KCMA-KLVK

FLIGHT INFORMATION

Flight Status: Arrived
Operator: Privately registered:
United States
More flights under this callsign
Pilot: Gabor H. (24209)
Aircraft: Unknown
(EPIC)
More flights by this aircraft type
Origin: KCMA Camarillo
United States
Destination: KLVK Livermore Mun
United States
More flights between these airports :: More routes between these airports
Route: RZS PXN SMONE
File this flight plan on PilotEdge
Remarks:
Altitude:
(Current/Filed)
20,000ft
Speed:
(Current/Filed)
325kts
Departed: 11-Sep-20 03:39 PM
Arrived: 11-Sep-20 04:34 PM
Distance/Time
Traveled:
247nm/0:55
Distance/Time
To Go:
Arrived

Flight Plot

Page will automatically refresh every two minutes.

Flight plan parsing failed; only flown route is shown


Map Options




Map Legend


Flown Route
Filed Route
Departure Airport
Arrival Airport
Navaid (VOR, NDB)
Fix

Horizontal Profiles

Position Reports

Time Latitude Longitude Heading Altitude Ground
Speed
11-Sep-20 15:26 34.210721 -119.093688 90 80ft 0kts
11-Sep-20 15:26 34.210721 -119.093688 90 80ft 0kts
11-Sep-20 15:27 34.210721 -119.093688 90 80ft 0kts
11-Sep-20 15:28 34.210721 -119.093688 90 80ft 0kts
11-Sep-20 15:29 34.210721 -119.093688 90 80ft 0kts
11-Sep-20 15:30 34.210721 -119.093688 90 80ft 0kts
11-Sep-20 15:31 34.210721 -119.093688 90 80ft 0kts
11-Sep-20 15:32 34.210721 -119.093688 90 80ft 0kts
11-Sep-20 15:33 34.210721 -119.093688 90 80ft 0kts
11-Sep-20 15:34 34.210727 -119.093608 77 80ft 8kts
11-Sep-20 15:35 34.210944 -119.087740 92 80ft 23kts
11-Sep-20 15:36 34.212727 -119.084641 357 80ft 0kts
11-Sep-20 15:37 34.213684 -119.084935 273 80ft 16kts
11-Sep-20 15:38 34.216975 -119.113647 286 761ft 172kts
11-Sep-20 15:39 34.234740 -119.176659 286 2909ft 210kts
11-Sep-20 15:40 34.258940 -119.241340 297 5478ft 216kts
11-Sep-20 15:41 34.289538 -119.305926 298 7975ft 227kts
11-Sep-20 15:42 34.321713 -119.373606 298 10418ft 238kts
11-Sep-20 15:43 34.355213 -119.444165 299 12921ft 247kts
11-Sep-20 15:44 34.389896 -119.517375 298 15276ft 255kts
11-Sep-20 15:45 34.425652 -119.593017 298 17426ft 263kts
11-Sep-20 15:46 34.462386 -119.670896 297 19254ft 269kts
11-Sep-20 15:47 34.500803 -119.752454 300 20022ft 296kts
11-Sep-20 15:48 34.576602 -119.800696 338 20022ft 323kts
11-Sep-20 15:49 34.662346 -119.838947 338 20022ft 331kts
11-Sep-20 15:50 34.749264 -119.877703 338 20023ft 334kts
11-Sep-20 15:51 34.836347 -119.916618 338 20026ft 334kts
11-Sep-20 15:52 34.923581 -119.955688 338 20028ft 334kts
11-Sep-20 15:53 35.011166 -119.995009 338 20028ft 336kts
11-Sep-20 15:54 35.098956 -120.034516 338 20039ft 337kts
11-Sep-20 15:55 35.186973 -120.074212 338 20050ft 337kts
11-Sep-20 15:56 35.274877 -120.113949 338 20052ft 338kts
11-Sep-20 15:57 35.363059 -120.153904 338 20048ft 338kts
11-Sep-20 15:58 35.451297 -120.193978 338 20046ft 338kts
11-Sep-20 15:59 35.539538 -120.234148 338 20045ft 338kts
11-Sep-20 16:00 35.627473 -120.274272 338 20045ft 338kts
11-Sep-20 16:01 35.715982 -120.314755 338 20046ft 338kts
11-Sep-20 16:02 35.804054 -120.355132 338 20046ft 338kts
11-Sep-20 16:03 35.892413 -120.395757 341 20048ft 338kts
11-Sep-20 16:04 35.979783 -120.435986 341 20035ft 333kts
11-Sep-20 16:05 36.066146 -120.475862 341 20036ft 331kts
11-Sep-20 16:06 36.152426 -120.515790 341 20038ft 331kts
11-Sep-20 16:07 36.238525 -120.555732 341 20035ft 330kts
11-Sep-20 16:08 36.324697 -120.595802 341 20033ft 330kts
11-Sep-20 16:09 36.411006 -120.636031 341 20032ft 330kts
11-Sep-20 16:10 36.497043 -120.676229 341 20026ft 330kts
11-Sep-20 16:11 36.582820 -120.716400 341 20016ft 330kts
11-Sep-20 16:12 36.668845 -120.756783 341 20011ft 330kts
11-Sep-20 16:13 36.752372 -120.804545 332 20017ft 332kts
11-Sep-20 16:14 36.833389 -120.861110 332 19584ft 339kts
11-Sep-20 16:15 36.917308 -120.919933 332 18052ft 350kts
11-Sep-20 16:16 37.001952 -120.979422 332 16504ft 348kts
11-Sep-20 16:17 37.086002 -121.038638 332 14967ft 340kts
11-Sep-20 16:18 37.165825 -121.095031 332 13528ft 322kts
11-Sep-20 16:19 37.243006 -121.149677 331 12140ft 317kts
11-Sep-20 16:20 37.319525 -121.203967 330 10882ft 315kts
11-Sep-20 16:21 37.396090 -121.258448 330 9532ft 316kts
11-Sep-20 16:22 37.470498 -121.311514 329 8171ft 294kts
11-Sep-20 16:23 37.539967 -121.362274 321 7016ft 279kts
11-Sep-20 16:24 37.600862 -121.419910 324 5227ft 267kts
11-Sep-20 16:25 37.655982 -121.472396 324 4047ft 238kts
11-Sep-20 16:26 37.690673 -121.530509 272 3696ft 191kts
11-Sep-20 16:27 37.691731 -121.593741 269 3209ft 170kts
11-Sep-20 16:28 37.692294 -121.649056 268 2956ft 150kts
11-Sep-20 16:29 37.692751 -121.696488 267 2250ft 121kts
11-Sep-20 16:30 37.693142 -121.736924 267 1595ft 109kts
11-Sep-20 16:31 37.693453 -121.772828 267 1049ft 109kts
11-Sep-20 16:32 37.693819 -121.810200 268 427ft 94kts
11-Sep-20 16:33 37.694390 -121.820496 356 386ft 0kts
11-Sep-20 16:34 37.695072 -121.821152 17 384ft 6kts
11-Sep-20 16:35 37.695423 -121.820947 93 385ft 0kts
11-Sep-20 16:36 37.695423 -121.820947 93 385ft 0kts
11-Sep-20 16:37 37.695423 -121.820947 93 385ft 0kts
11-Sep-20 16:38 37.695423 -121.820947 93 385ft 0kts
11-Sep-20 16:39 37.695423 -121.820947 93 385ft 0kts
11-Sep-20 16:40 37.695423 -121.820947 93 385ft 0kts
11-Sep-20 16:41 37.695423 -121.820947 93 385ft 0kts

Navigation Log

Ident Type
Flight plan parsing failed, navigation log unavailable